createdAt,value
2022-10-25T00:00:45.324Z,18.10
2022-10-25T00:03:29.168Z,15.30
2022-10-25T00:05:56.965Z,14.50
2022-10-25T00:08:24.715Z,13.60
2022-10-25T00:10:52.521Z,15.10
2022-10-25T00:13:20.245Z,26.00
2022-10-25T00:15:48.004Z,20.90
2022-10-25T00:18:15.728Z,17.60
2022-10-25T00:20:43.459Z,15.40
2022-10-25T00:23:11.299Z,17.80
2022-10-25T00:25:39.008Z,13.50
2022-10-25T00:28:06.789Z,13.70
2022-10-25T00:30:34.588Z,12.70
2022-10-25T00:33:02.400Z,11.70
2022-10-25T00:35:30.146Z,15.10
2022-10-25T00:37:57.921Z,14.20
2022-10-25T00:40:25.747Z,15.90
2022-10-25T00:42:53.511Z,22.00
2022-10-25T00:45:27.503Z,24.70
2022-10-25T00:48:02.998Z,30.20
2022-10-25T00:50:49.736Z,28.50
2022-10-25T00:53:21.078Z,30.50
2022-10-25T00:55:53.872Z,24.80
2022-10-25T00:58:23.855Z,36.80
2022-10-25T01:00:51.650Z,34.20
2022-10-25T01:03:21.158Z,45.60
2022-10-25T01:05:48.953Z,53.10
2022-10-25T01:08:16.678Z,56.30
2022-10-25T01:10:44.486Z,54.40
2022-10-25T01:13:12.353Z,48.70
2022-10-25T01:15:59.094Z,41.20
2022-10-25T01:18:56.275Z,35.60
2022-10-25T01:21:49.990Z,26.00
2022-10-25T01:24:48.749Z,22.30
2022-10-25T01:27:39.782Z,18.10
2022-10-25T01:30:20.858Z,18.00
2022-10-25T01:33:01.218Z,16.40
2022-10-25T01:35:50.451Z,14.70
2022-10-25T01:38:28.823Z,16.80
2022-10-25T01:41:05.691Z,15.70
2022-10-25T01:44:23.087Z,15.10
2022-10-25T01:46:55.094Z,15.20
2022-10-25T01:49:48.425Z,19.30
2022-10-25T01:52:22.474Z,16.60
2022-10-25T01:54:51.039Z,16.50
2022-10-25T01:58:09.003Z,17.20
2022-10-25T02:00:54.437Z,16.70
2022-10-25T02:03:34.342Z,18.50
2022-10-25T02:06:18.856Z,16.60
2022-10-25T02:09:23.422Z,19.40
2022-10-25T02:11:51.241Z,21.20
2022-10-25T02:14:29.054Z,23.80
2022-10-25T02:17:04.374Z,24.20
2022-10-25T02:19:54.572Z,23.10
2022-10-25T02:22:24.613Z,21.10
2022-10-25T02:24:52.451Z,20.70
2022-10-25T02:27:20.631Z,21.70
2022-10-25T02:29:48.390Z,23.20
2022-10-25T02:32:16.112Z,20.80
2022-10-25T02:34:44.029Z,19.80
2022-10-25T02:37:11.887Z,21.40
2022-10-25T02:39:39.701Z,19.50
2022-10-25T02:42:07.516Z,22.30
2022-10-25T02:44:35.486Z,24.20
2022-10-25T02:47:03.208Z,28.10
2022-10-25T02:49:31.014Z,29.20
2022-10-25T02:51:58.738Z,25.40
2022-10-25T02:54:26.477Z,27.70
2022-10-25T02:56:54.409Z,32.40
2022-10-25T02:59:22.374Z,26.50
2022-10-25T03:01:50.203Z,30.40
2022-10-25T03:04:17.996Z,25.10
2022-10-25T03:06:45.695Z,22.30
2022-10-25T03:09:13.361Z,17.90
2022-10-25T03:11:41.067Z,18.70
2022-10-25T03:14:08.855Z,17.90
2022-10-25T03:16:36.753Z,21.90
2022-10-25T03:19:04.724Z,16.30
2022-10-25T03:21:32.695Z,19.10
2022-10-25T03:24:00.408Z,18.80
2022-10-25T03:26:28.249Z,16.40
2022-10-25T03:28:56.159Z,19.50
2022-10-25T03:31:25.338Z,18.90
2022-10-25T03:33:53.134Z,18.60
2022-10-25T03:36:20.984Z,18.10
2022-10-25T03:38:48.709Z,19.90
2022-10-25T03:41:16.474Z,24.90
2022-10-25T03:43:44.163Z,28.80
2022-10-25T03:46:11.966Z,30.90
2022-10-25T03:48:39.758Z,25.70
2022-10-25T03:51:07.528Z,22.60
2022-10-25T03:53:35.767Z,21.80
2022-10-25T03:56:03.611Z,23.30
2022-10-25T03:58:31.474Z,23.70
2022-10-25T04:01:00.264Z,26.00
2022-10-25T04:03:28.172Z,26.10
2022-10-25T04:05:55.879Z,26.60
2022-10-25T04:08:23.583Z,22.90
2022-10-25T04:10:51.324Z,23.80
2022-10-25T04:13:19.089Z,19.80
2022-10-25T04:15:46.906Z,23.10
2022-10-25T04:18:14.618Z,20.60
2022-10-25T04:20:42.375Z,19.20
2022-10-25T04:23:10.099Z,19.20
2022-10-25T04:25:37.848Z,17.70
2022-10-25T04:28:05.582Z,18.80
2022-10-25T04:30:36.520Z,21.30
2022-10-25T04:33:07.055Z,22.40
2022-10-25T04:35:34.793Z,22.90
2022-10-25T04:38:02.659Z,22.00
2022-10-25T04:40:30.426Z,17.70
2022-10-25T04:43:02.492Z,22.30
2022-10-25T04:45:30.614Z,17.80
2022-10-25T04:47:58.271Z,18.00
2022-10-25T04:50:26.191Z,19.40
2022-10-25T04:52:53.916Z,22.40
2022-10-25T04:55:21.718Z,20.40
2022-10-25T04:57:49.771Z,20.40
2022-10-25T05:00:17.489Z,19.10
2022-10-25T05:02:45.636Z,18.30
2022-10-25T05:05:13.838Z,20.90
2022-10-25T05:07:41.593Z,25.60
2022-10-25T05:10:09.828Z,23.90
2022-10-25T05:12:38.557Z,26.20
2022-10-25T05:15:07.532Z,25.10
2022-10-25T05:17:35.693Z,24.70
2022-10-25T05:20:03.846Z,21.00
2022-10-25T05:22:31.566Z,22.00
2022-10-25T05:24:59.287Z,23.20
2022-10-25T05:27:26.976Z,24.30
2022-10-25T05:29:54.736Z,24.60
2022-10-25T05:32:22.426Z,22.60
2022-10-25T05:34:50.242Z,21.30
2022-10-25T05:37:18.111Z,20.00
2022-10-25T05:39:45.974Z,25.20
2022-10-25T05:42:13.739Z,26.50
2022-10-25T05:44:41.603Z,28.50
2022-10-25T05:47:09.468Z,24.00
2022-10-25T05:49:40.251Z,23.50
2022-10-25T05:52:08.789Z,21.60
2022-10-25T05:54:36.738Z,21.40
2022-10-25T05:57:04.470Z,20.30
2022-10-25T05:59:32.293Z,19.00
2022-10-25T06:02:00.139Z,22.60
2022-10-25T06:04:28.238Z,22.20
2022-10-25T06:06:55.995Z,18.10
2022-10-25T06:09:23.790Z,19.80
2022-10-25T06:11:51.622Z,19.50
2022-10-25T06:14:19.478Z,18.60
2022-10-25T06:16:47.221Z,19.90
2022-10-25T06:19:15.007Z,16.60
2022-10-25T06:21:42.764Z,16.70
2022-10-25T06:24:10.739Z,20.20
2022-10-25T06:26:38.506Z,18.30
2022-10-25T06:29:06.245Z,22.70
2022-10-25T06:31:34.219Z,18.50
2022-10-25T06:34:02.719Z,18.30
2022-10-25T06:36:31.650Z,15.80
2022-10-25T06:39:05.534Z,16.30
2022-10-25T06:41:37.426Z,15.70
2022-10-25T06:44:07.446Z,19.60
2022-10-25T06:47:11.627Z,20.60
2022-10-25T06:49:26.551Z,13.20
2022-10-25T06:51:54.682Z,16.70
2022-10-25T06:54:22.447Z,16.30
2022-10-25T06:56:50.283Z,16.30
2022-10-25T06:59:19.529Z,15.20
2022-10-25T07:01:47.728Z,16.60
2022-10-25T07:04:16.424Z,15.60
2022-10-25T07:06:44.218Z,15.40
2022-10-25T07:09:13.401Z,16.50
2022-10-25T07:11:41.326Z,17.10
2022-10-25T07:14:09.457Z,18.10
2022-10-25T07:16:37.410Z,16.50
2022-10-25T07:19:05.344Z,15.10
2022-10-25T07:21:33.687Z,15.70
2022-10-25T07:24:01.621Z,14.10
2022-10-25T07:26:31.929Z,16.50
2022-10-25T07:29:01.289Z,13.70
2022-10-25T07:31:41.914Z,14.00
2022-10-25T07:34:12.458Z,15.60
2022-10-25T07:36:40.920Z,15.90
2022-10-25T07:39:08.709Z,14.60
2022-10-25T07:41:36.449Z,10.30
2022-10-25T07:44:04.199Z,13.90
2022-10-25T07:46:32.110Z,14.60
2022-10-25T07:48:59.967Z,12.70
2022-10-25T07:51:27.661Z,11.70
2022-10-25T07:53:55.576Z,12.30
2022-10-25T07:56:23.606Z,11.10
2022-10-25T07:58:52.659Z,13.80
2022-10-25T08:01:29.506Z,10.90
2022-10-25T08:03:57.484Z,12.10
2022-10-25T08:06:25.706Z,16.00
2022-10-25T08:08:53.628Z,13.10
2022-10-25T08:11:21.806Z,10.00
2022-10-25T08:13:50.546Z,14.60
2022-10-25T08:16:18.564Z,11.10
2022-10-25T08:18:46.402Z,12.10
2022-10-25T08:21:14.404Z,13.70
2022-10-25T08:23:42.153Z,10.90
2022-10-25T08:26:10.443Z,10.80
2022-10-25T08:28:38.156Z,10.10
2022-10-25T08:31:06.267Z,13.60
2022-10-25T08:33:34.482Z,10.70
2022-10-25T08:36:02.819Z,11.00
2022-10-25T08:38:30.558Z,11.80
2022-10-25T08:41:15.770Z,10.40
2022-10-25T08:43:46.518Z,12.10
2022-10-25T08:46:39.651Z,11.40
2022-10-25T08:49:20.111Z,10.70
2022-10-25T08:51:48.897Z,9.40
2022-10-25T08:54:24.344Z,12.50
2022-10-25T08:57:14.588Z,11.60
2022-10-25T08:59:46.287Z,13.30
2022-10-25T09:02:45.229Z,13.30
2022-10-25T09:06:00.243Z,9.60
2022-10-25T09:09:07.663Z,12.30
2022-10-25T09:12:19.235Z,10.60
2022-10-25T09:15:45.908Z,11.30
2022-10-25T09:18:16.761Z,9.30
2022-10-25T09:20:50.917Z,9.90
2022-10-25T09:23:32.519Z,12.40
2022-10-25T09:26:11.958Z,7.80
2022-10-25T09:28:52.455Z,8.80
2022-10-25T09:31:23.677Z,8.90
2022-10-25T09:34:04.045Z,9.70
2022-10-25T09:36:42.826Z,9.70
2022-10-25T09:39:46.362Z,9.30
2022-10-25T09:42:22.304Z,8.60
2022-10-25T09:44:56.966Z,12.00
2022-10-25T09:48:03.533Z,9.50
2022-10-25T09:50:39.887Z,9.50
2022-10-25T09:53:16.449Z,8.70
2022-10-25T09:55:53.189Z,7.80
2022-10-25T09:58:24.740Z,10.00
2022-10-25T10:00:54.579Z,10.00
2022-10-25T10:03:22.443Z,8.40
2022-10-25T10:05:52.651Z,10.60
2022-10-25T10:08:20.356Z,7.30
2022-10-25T10:10:48.861Z,9.40
2022-10-25T10:13:41.771Z,8.40
2022-10-25T10:16:27.729Z,9.40
2022-10-25T10:19:18.559Z,11.30
2022-10-25T10:22:14.387Z,13.50
2022-10-25T10:24:43.743Z,7.30
2022-10-25T10:27:29.580Z,8.80
2022-10-25T10:30:03.678Z,9.00
2022-10-25T10:32:36.002Z,10.20
2022-10-25T10:35:06.747Z,11.20
2022-10-25T10:37:34.574Z,9.00
2022-10-25T10:40:04.999Z,9.80
2022-10-25T10:42:37.877Z,7.90
2022-10-25T10:45:08.079Z,9.20
2022-10-25T10:47:43.670Z,10.80
2022-10-25T10:50:20.922Z,11.20
2022-10-25T10:52:58.262Z,9.60
2022-10-25T10:55:38.324Z,8.70
2022-10-25T10:58:17.860Z,10.70
2022-10-25T11:01:07.701Z,10.10
2022-10-25T11:03:53.637Z,9.10
2022-10-25T11:06:35.978Z,8.80
2022-10-25T11:09:25.284Z,12.40
2022-10-25T11:12:15.035Z,9.90
2022-10-25T11:14:42.804Z,11.60
2022-10-25T11:17:26.747Z,10.10
2022-10-25T11:20:22.148Z,11.10
2022-10-25T11:23:36.618Z,8.30
2022-10-25T11:26:42.634Z,12.90
2022-10-25T11:29:21.557Z,9.90
2022-10-25T11:32:06.043Z,10.80
2022-10-25T11:34:49.063Z,12.20
2022-10-25T11:37:29.119Z,9.20
2022-10-25T11:40:17.100Z,11.60
2022-10-25T11:43:04.356Z,9.80
2022-10-25T11:45:39.554Z,8.40
2022-10-25T11:48:29.090Z,9.90
2022-10-25T11:51:23.602Z,9.60
2022-10-25T11:54:33.063Z,8.70
2022-10-25T11:57:42.665Z,7.40
2022-10-25T12:00:20.242Z,11.10
2022-10-25T12:03:43.806Z,8.70
2022-10-25T12:06:50.303Z,8.70
2022-10-25T12:09:43.018Z,9.70
2022-10-25T12:12:16.681Z,14.70
2022-10-25T12:14:49.089Z,9.20
2022-10-25T12:17:30.820Z,9.90
2022-10-25T12:20:05.034Z,6.80
2022-10-25T12:22:39.774Z,9.90
2022-10-25T12:25:43.104Z,8.90
2022-10-25T12:28:25.131Z,12.00
2022-10-25T12:31:06.278Z,6.20
2022-10-25T12:33:44.275Z,7.20
2022-10-25T12:36:35.550Z,9.00
2022-10-25T12:39:11.145Z,7.40
2022-10-25T12:41:40.401Z,8.90
2022-10-25T12:44:17.584Z,8.70
2022-10-25T12:47:03.681Z,7.60
2022-10-25T12:50:02.339Z,6.50
2022-10-25T12:52:38.744Z,5.90
2022-10-25T12:58:55.836Z,6.20
2022-10-25T13:01:26.955Z,5.50
2022-10-25T13:04:11.425Z,7.70
2022-10-25T13:06:44.396Z,8.50
2022-10-25T13:09:21.007Z,7.30
2022-10-25T13:15:18.223Z,9.70
2022-10-25T13:17:58.672Z,6.40
2022-10-25T13:20:35.605Z,4.80
2022-10-25T13:23:44.577Z,6.90
2022-10-25T13:26:21.199Z,5.60
2022-10-25T13:28:51.263Z,5.50
2022-10-25T13:31:34.476Z,6.60
2022-10-25T13:34:20.593Z,5.70
2022-10-25T13:36:53.383Z,6.30
2022-10-25T13:39:31.574Z,5.90
2022-10-25T13:42:15.826Z,5.80
2022-10-25T13:45:05.038Z,6.00
2022-10-25T13:47:42.790Z,8.30
2022-10-25T13:50:32.486Z,12.10
2022-10-25T13:53:19.195Z,7.90
2022-10-25T13:55:56.875Z,9.50
2022-10-25T13:58:32.257Z,5.60
2022-10-25T14:01:18.928Z,7.10
2022-10-25T14:04:01.948Z,6.90
2022-10-25T14:06:33.399Z,9.70
2022-10-25T14:09:40.092Z,8.80
2022-10-25T14:12:16.773Z,9.80
2022-10-25T14:15:17.687Z,8.90
2022-10-25T14:17:46.093Z,7.50
2022-10-25T14:20:32.181Z,8.40
2022-10-25T14:23:08.246Z,6.40
2022-10-25T14:25:38.460Z,8.40
2022-10-25T14:28:27.757Z,27.60
2022-10-25T14:30:57.263Z,48.10
2022-10-25T14:33:40.955Z,33.00
2022-10-25T14:36:29.028Z,13.50
2022-10-25T14:39:24.049Z,13.00
2022-10-25T14:42:00.806Z,11.10
2022-10-25T14:44:44.015Z,10.30
2022-10-25T14:47:27.613Z,10.10
2022-10-25T14:49:56.866Z,7.80
2022-10-25T14:52:26.060Z,12.20
2022-10-25T14:54:58.430Z,9.40
2022-10-25T14:57:26.188Z,7.70
2022-10-25T15:02:40.121Z,9.80
2022-10-25T15:05:17.381Z,8.60
2022-10-25T15:07:47.051Z,6.20
2022-10-25T15:10:43.249Z,8.40
2022-10-25T15:13:20.336Z,11.00
2022-10-25T15:15:50.247Z,14.50
2022-10-25T15:18:27.023Z,11.70
2022-10-25T15:21:06.194Z,9.20
2022-10-25T15:23:35.920Z,9.60
2022-10-25T15:26:30.589Z,10.30
2022-10-25T15:29:00.800Z,13.00
2022-10-25T15:31:31.104Z,9.40
2022-10-25T15:34:03.940Z,12.30
2022-10-25T15:36:33.393Z,8.60
2022-10-25T15:39:11.451Z,7.30
2022-10-25T15:41:42.062Z,8.70
2022-10-25T15:44:11.534Z,9.10
2022-10-25T15:46:40.251Z,8.90
2022-10-25T15:49:08.805Z,9.00
2022-10-25T15:51:41.434Z,11.70
2022-10-25T15:54:23.952Z,8.70
2022-10-25T15:56:52.265Z,11.60
2022-10-25T15:59:19.999Z,13.10
2022-10-25T16:01:50.913Z,13.50
2022-10-25T16:04:20.068Z,14.80
2022-10-25T16:06:49.118Z,17.10
2022-10-25T16:09:16.951Z,17.30
2022-10-25T16:11:47.262Z,17.20
2022-10-25T16:14:23.390Z,27.60
2022-10-25T16:16:51.264Z,26.30
2022-10-25T16:19:19.765Z,18.60
2022-10-25T16:21:47.727Z,17.00
2022-10-25T16:24:15.538Z,20.40
2022-10-25T16:26:46.075Z,28.40
2022-10-25T16:29:19.175Z,42.20
2022-10-25T16:31:47.348Z,46.00
2022-10-25T16:34:19.767Z,92.80
2022-10-25T16:36:49.356Z,66.30
2022-10-25T16:39:17.423Z,91.20
2022-10-25T16:41:46.246Z,84.60
2022-10-25T16:44:19.283Z,57.50
2022-10-25T16:46:47.372Z,40.60
2022-10-25T16:49:15.486Z,36.00
2022-10-25T16:51:44.526Z,66.00
2022-10-25T16:54:13.524Z,102.10
2022-10-25T16:56:42.322Z,110.00
2022-10-25T16:59:10.125Z,84.00
2022-10-25T17:01:38.939Z,49.70
2022-10-25T17:04:11.453Z,25.30
2022-10-25T17:06:42.331Z,21.70
2022-10-25T17:09:11.454Z,20.00
2022-10-25T17:11:41.123Z,48.00
2022-10-25T17:14:12.850Z,39.90
2022-10-25T17:16:42.961Z,28.40
2022-10-25T17:19:12.779Z,41.40
2022-10-25T17:21:40.747Z,180.40
2022-10-25T17:24:09.956Z,70.50
2022-10-25T17:26:39.878Z,48.30
2022-10-25T17:29:08.268Z,51.90
2022-10-25T17:31:37.330Z,60.90
2022-10-25T17:34:13.353Z,101.70
2022-10-25T17:36:41.470Z,91.70
2022-10-25T17:39:10.211Z,43.30
2022-10-25T17:41:38.024Z,34.50
2022-10-25T17:44:06.114Z,28.60
2022-10-25T17:46:33.992Z,27.80
2022-10-25T17:49:03.942Z,23.20
2022-10-25T17:51:34.289Z,16.80
2022-10-25T17:54:02.507Z,17.80
2022-10-25T17:59:03.179Z,13.60
2022-10-25T18:01:35.332Z,28.10
2022-10-25T18:04:03.583Z,17.60
2022-10-25T18:06:32.244Z,14.50
2022-10-25T18:09:00.368Z,13.00
2022-10-25T18:11:28.689Z,10.40
2022-10-25T18:13:59.739Z,9.60
2022-10-25T18:16:31.100Z,12.90
2022-10-25T18:19:01.559Z,12.30
2022-10-25T18:21:29.893Z,12.30
2022-10-25T18:24:03.286Z,12.10
2022-10-25T18:26:31.608Z,12.70
2022-10-25T18:29:07.305Z,10.90
2022-10-25T18:31:35.175Z,9.60
2022-10-25T18:34:05.127Z,8.40
2022-10-25T18:36:35.117Z,20.50
2022-10-25T18:39:03.280Z,21.20
2022-10-25T18:41:32.987Z,20.20
2022-10-25T18:44:04.394Z,26.60
2022-10-25T18:46:33.155Z,11.90
2022-10-25T18:49:01.202Z,21.50
2022-10-25T18:51:32.128Z,14.30
2022-10-25T18:54:02.096Z,11.40
2022-10-25T18:56:30.685Z,11.70
2022-10-25T18:58:59.425Z,11.30
2022-10-25T19:01:32.200Z,8.70
2022-10-25T19:04:02.323Z,11.40
2022-10-25T19:06:31.045Z,11.20
2022-10-25T19:09:00.515Z,9.50
2022-10-25T19:11:28.591Z,8.00
2022-10-25T19:13:56.656Z,8.40
2022-10-25T19:16:24.515Z,6.00
2022-10-25T19:18:52.838Z,13.60
2022-10-25T19:21:20.770Z,13.40
2022-10-25T19:23:48.595Z,12.10
2022-10-25T19:26:20.444Z,15.60
2022-10-25T19:28:58.413Z,14.50
2022-10-25T19:31:27.488Z,11.30
2022-10-25T19:34:00.678Z,7.90
2022-10-25T19:36:29.115Z,8.10
2022-10-25T19:38:56.930Z,6.90
2022-10-25T19:41:25.860Z,6.90
2022-10-25T19:43:56.466Z,7.80
2022-10-25T19:46:24.515Z,8.10
2022-10-25T19:48:53.065Z,7.40
2022-10-25T19:51:21.275Z,8.90
2022-10-25T19:53:49.107Z,6.70
2022-10-25T19:56:20.136Z,6.70
2022-10-25T19:58:48.456Z,7.70
2022-10-25T20:01:24.706Z,8.50
2022-10-25T20:04:00.823Z,9.40
2022-10-25T20:06:33.867Z,9.00
2022-10-25T20:09:02.071Z,9.50
2022-10-25T20:11:31.575Z,16.00
2022-10-25T20:14:01.048Z,14.50
2022-10-25T20:16:29.628Z,12.00
2022-10-25T20:18:59.301Z,10.70
2022-10-25T20:21:36.561Z,9.00
2022-10-25T20:24:07.625Z,9.20
2022-10-25T20:26:37.799Z,9.50
2022-10-25T20:29:12.568Z,9.00
2022-10-25T20:31:42.538Z,9.20
2022-10-25T20:34:10.316Z,11.70
2022-10-25T20:36:38.773Z,10.30
2022-10-25T20:39:07.662Z,13.20
2022-10-25T20:41:35.842Z,12.60
2022-10-25T20:44:04.854Z,12.70
2022-10-25T20:46:33.126Z,15.50
2022-10-25T20:49:03.535Z,14.20
2022-10-25T20:51:31.349Z,15.30
2022-10-25T20:53:59.279Z,15.50
2022-10-25T20:56:28.462Z,14.20
2022-10-25T20:58:56.351Z,11.50
2022-10-25T21:01:24.222Z,14.50
2022-10-25T21:03:54.326Z,13.50
2022-10-25T21:06:22.096Z,12.30
2022-10-25T21:08:49.848Z,11.10
2022-10-25T21:11:17.569Z,12.60
2022-10-25T21:13:45.317Z,11.40
2022-10-25T21:16:15.069Z,16.70
2022-10-25T21:18:43.776Z,12.60
2022-10-25T21:21:18.094Z,12.40
2022-10-25T21:23:47.511Z,18.60
2022-10-25T21:26:16.277Z,15.30
2022-10-25T21:28:44.034Z,14.10
2022-10-25T21:31:13.875Z,16.90
2022-10-25T21:33:49.711Z,24.50
2022-10-25T21:36:20.037Z,21.00
2022-10-25T21:38:47.952Z,16.00
2022-10-25T21:41:27.118Z,14.50
2022-10-25T21:43:56.768Z,17.90
2022-10-25T21:46:27.110Z,17.40
2022-10-25T21:48:58.101Z,18.90
2022-10-25T21:51:25.967Z,13.60
2022-10-25T21:53:55.216Z,14.30
2022-10-25T21:56:31.347Z,14.90
2022-10-25T21:59:00.248Z,18.80
2022-10-25T22:01:30.060Z,15.60
2022-10-25T22:03:58.302Z,15.90
2022-10-25T22:06:30.063Z,15.80
2022-10-25T22:08:57.928Z,18.20
2022-10-25T22:11:28.346Z,19.60
2022-10-25T22:13:59.031Z,16.70
2022-10-25T22:16:27.260Z,18.00
2022-10-25T22:18:59.066Z,16.60
2022-10-25T22:21:28.829Z,17.10
2022-10-25T22:23:56.930Z,19.20
2022-10-25T22:26:25.328Z,19.10
2022-10-25T22:28:54.865Z,18.30
2022-10-25T22:31:23.162Z,20.10
2022-10-25T22:33:57.173Z,18.20
2022-10-25T22:36:27.630Z,18.90
2022-10-25T22:38:55.719Z,18.70
2022-10-25T22:41:25.482Z,18.70
2022-10-25T22:43:53.816Z,20.70
2022-10-25T22:46:25.401Z,19.80
2022-10-25T22:48:54.958Z,15.90
2022-10-25T22:51:23.735Z,20.50
2022-10-25T22:53:52.523Z,19.90
2022-10-25T22:56:26.297Z,16.10
2022-10-25T22:58:56.534Z,21.40
2022-10-25T23:01:35.639Z,17.40
2022-10-25T23:04:08.364Z,17.20
2022-10-25T23:06:38.546Z,19.20
2022-10-25T23:09:11.915Z,21.50
2022-10-25T23:11:40.843Z,19.10
2022-10-25T23:14:13.457Z,19.00
2022-10-25T23:16:45.992Z,16.20
2022-10-25T23:19:13.732Z,15.10
2022-10-25T23:21:41.518Z,17.80
2022-10-25T23:24:09.621Z,17.70
2022-10-25T23:30:07.642Z,19.00
2022-10-25T23:32:36.602Z,15.80
2022-10-25T23:35:06.184Z,17.00
2022-10-25T23:37:33.904Z,20.20
2022-10-25T23:40:01.712Z,20.10
2022-10-25T23:42:29.575Z,17.20
2022-10-25T23:44:57.366Z,17.40
2022-10-25T23:51:08.496Z,16.30
2022-10-25T23:53:36.497Z,18.00
2022-10-25T23:56:07.131Z,15.20
2022-10-25T23:58:35.009Z,18.60
